Fultz, Kentucky
Current Conditions -  °F | °C
As of 12:55 PM on Saturday 22 Nov 2014 (Local Time) from KDWU Reporting Station
Broken Clouds Broken Clouds  
Wind Chill: 59°   Ceiling: 11000
Heat Index: 59°   Visibility: 10mi
Dew Point: 28°   Wind: 10mph
Humidity: 31%   Direction: 240°WSW
Pressure: 30.23"   Gusts: NA
Location:  38.3193°N, 82.994°W
Report Text: KDWU 221755Z AUTO 24009KT 210V270 10SM FEW080 BKN110 15/M02 A3023 RMK AO1 10150 21020 57037
Loading
Personal Weather Stations






























Interactive Weather Map New forecast layout! Learn more

10-Day Weather Forecast

Advertisements
Track Severe Weather on mobile